Time;durP1;ratioP1;P1;durP2;ratioP2;P2;SDS_P1;SDS_P2;PMS_P1;PMS_P2;Temp;Humidity;BMP_temperature;BMP_pressure;BME280_temperature;BME280_humidity;BME280_pressure;Samples;Min_cycle;Max_cycle;Signal;HPM_P1;HPM_P2
2022/10/28 00:02:01;;;;;;;1.47;1.37;;;13.70;99.90;;;;;;5074822;28;20180;-69
2022/10/28 00:04:26;;;;;;;0.50;0.50;;;13.70;99.90;;;;;;5074846;28;20169;-71
2022/10/28 00:06:52;;;;;;;0.73;0.73;;;13.80;99.90;;;;;;5075016;28;20697;-69
2022/10/28 00:09:18;;;;;;;0.67;0.60;;;13.90;99.90;;;;;;5074689;28;20192;-68
2022/10/28 00:11:43;;;;;;;0.73;0.73;;;13.90;99.90;;;;;;5074764;28;20203;-69
2022/10/28 00:14:10;;;;;;;0.50;0.50;;;14.00;99.90;;;;;;5074920;28;20165;-68
2022/10/28 00:16:37;;;;;;;0.60;0.60;;;14.00;99.90;;;;;;5074793;28;20180;-69
2022/10/28 00:19:04;;;;;;;0.40;0.40;;;14.00;99.90;;;;;;5074559;28;20552;-72
2022/10/28 00:21:33;;;;;;;0.93;0.93;;;14.00;99.90;;;;;;5074761;28;20762;-69
2022/10/28 00:23:58;;;;;;;1.20;0.80;;;14.00;99.90;;;;;;5074560;28;20403;-70
2022/10/28 00:26:26;;;;;;;0.40;0.40;;;14.00;99.90;;;;;;5074294;28;20829;-70
2022/10/28 00:28:55;;;;;;;2.00;1.90;;;13.90;99.90;;;;;;5074349;28;20524;-70
2022/10/28 00:31:23;;;;;;;1.40;1.30;;;14.00;99.90;;;;;;5074384;28;20468;-71
2022/10/28 00:33:49;;;;;;;2.93;1.60;;;13.90;99.90;;;;;;5074322;28;20481;-68
2022/10/28 00:36:16;;;;;;;3.30;1.13;;;13.90;99.90;;;;;;5074437;28;20396;-71
2022/10/28 00:38:43;;;;;;;0.63;0.63;;;13.70;99.90;;;;;;5074306;28;20936;-71
2022/10/28 00:41:12;;;;;;;0.40;0.40;;;13.90;99.90;;;;;;5074128;28;20396;-68
2022/10/28 00:43:39;;;;;;;1.53;1.43;;;13.80;99.90;;;;;;5074266;28;20411;-71
2022/10/28 00:46:13;;;;;;;0.63;0.63;;;13.80;99.90;;;;;;5074225;28;20399;-71
2022/10/28 00:48:42;;;;;;;0.63;0.63;;;13.90;99.90;;;;;;5074186;28;20400;-71
2022/10/28 00:51:08;;;;;;;0.47;0.47;;;13.70;99.90;;;;;;5073920;28;20406;-69
2022/10/28 00:53:36;;;;;;;0.50;0.50;;;13.70;99.90;;;;;;5073989;28;20813;-70
2022/10/28 00:56:03;;;;;;;0.63;0.63;;;13.60;99.90;;;;;;5074074;28;20806;-69
2022/10/28 00:58:29;;;;;;;1.10;1.00;;;13.60;99.90;;;;;;5074083;28;20754;-69
2022/10/28 01:00:55;;;;;;;0.33;0.33;;;13.50;99.90;;;;;;5073598;28;20416;-70
2022/10/28 01:03:22;;;;;;;1.03;0.80;;;13.50;99.90;;;;;;5073775;28;20885;-71
2022/10/28 01:05:48;;;;;;;0.40;0.40;;;13.40;99.90;;;;;;5073446;28;20393;-68
2022/10/28 01:08:15;;;;;;;1.27;0.80;;;13.40;99.90;;;;;;5073813;28;20413;-68
2022/10/28 01:11:06;;;;;;;0.50;0.43;;;13.50;99.90;;;;;;5073384;28;20428;-70
2022/10/28 01:14:03;;;;;;;0.60;0.60;;;13.40;99.90;;;;;;5073681;28;20825;-68
2022/10/28 01:16:36;;;;;;;0.60;0.60;;;13.40;99.90;;;;;;5073822;28;20428;-71
2022/10/28 01:19:22;;;;;;;0.90;0.90;;;13.40;99.90;;;;;;5073505;28;20422;-70
2022/10/28 01:22:13;;;;;;;0.70;0.63;;;13.50;99.90;;;;;;5073600;28;20391;-71
2022/10/28 01:25:11;;;;;;;8.13;1.10;;;13.50;99.90;;;;;;5073700;28;20487;-68
2022/10/28 01:27:59;;;;;;;0.40;0.40;;;13.50;99.90;;;;;;5073515;28;20731;-68
2022/10/28 01:30:52;;;;;;;0.60;0.60;;;13.40;99.90;;;;;;5073342;28;20427;-71
2022/10/28 01:33:27;;;;;;;0.60;0.50;;;13.40;99.90;;;;;;5022408;28;21042;-70
2022/10/28 01:36:04;;;;;;;0.30;0.30;;;13.50;99.90;;;;;;5073643;28;20480;-68
2022/10/28 01:38:33;;;;;;;0.40;0.40;;;13.50;99.90;;;;;;5073668;28;20395;-68
2022/10/28 01:41:04;;;;;;;1.83;1.53;;;13.50;99.90;;;;;;5073205;28;20419;-69
2022/10/28 01:43:36;;;;;;;0.40;0.40;;;13.50;99.90;;;;;;5073504;28;20828;-69
2022/10/28 01:46:15;;;;;;;0.37;0.37;;;13.50;99.90;;;;;;5073333;28;20435;-70
2022/10/28 01:48:48;;;;;;;0.40;0.40;;;13.70;99.90;;;;;;5073693;28;20431;-70
2022/10/28 01:51:25;;;;;;;1.17;1.10;;;13.40;99.90;;;;;;5073652;28;20409;-70
2022/10/28 01:53:55;;;;;;;1.00;1.00;;;13.50;99.90;;;;;;5073487;28;20418;-71
2022/10/28 01:56:26;;;;;;;1.67;1.60;;;13.40;99.90;;;;;;5073454;28;20457;-71
2022/10/28 01:58:55;;;;;;;0.47;0.47;;;13.30;99.90;;;;;;5073414;28;20397;-71
2022/10/28 02:01:22;;;;;;;0.60;0.60;;;13.50;99.90;;;;;;5073404;28;20392;-70
2022/10/28 02:03:49;;;;;;;13.97;0.70;;;13.50;99.90;;;;;;5073213;28;20395;-69
2022/10/28 02:06:19;;;;;;;0.93;0.93;;;13.50;99.90;;;;;;5073114;28;20786;-71
2022/10/28 02:09:22;;;;;;;0.63;0.63;;;13.50;99.90;;;;;;5073044;28;20460;-71
2022/10/28 02:12:06;;;;;;;1.57;1.03;;;13.40;99.90;;;;;;5073266;28;20813;-71
2022/10/28 02:14:56;;;;;;;2.07;1.97;;;13.30;99.90;;;;;;5073223;28;20761;-71
2022/10/28 02:17:38;;;;;;;0.40;0.40;;;13.30;99.90;;;;;;5075667;28;20396;-68
2022/10/28 02:20:18;;;;;;;1.23;1.23;;;13.30;99.90;;;;;;5076612;28;20420;-72
2022/10/28 02:23:17;;;;;;;0.60;0.60;;;13.30;99.90;;;;;;5076905;28;20442;-70
2022/10/28 02:25:58;;;;;;;0.53;0.53;;;13.30;99.90;;;;;;5076593;28;20428;-72
2022/10/28 02:28:37;;;;;;;0.50;0.50;;;13.20;99.90;;;;;;5076742;28;20434;-70
2022/10/28 02:31:17;;;;;;;0.83;0.83;;;13.20;99.90;;;;;;5076505;28;20759;-69
2022/10/28 02:33:45;;;;;;;0.30;0.30;;;13.20;99.90;;;;;;5076793;28;20478;-67
2022/10/28 02:36:15;;;;;;;0.60;0.60;;;13.20;99.90;;;;;;5076429;28;20399;-70
2022/10/28 02:38:50;;;;;;;0.80;0.80;;;13.10;99.90;;;;;;5076429;28;20741;-71
2022/10/28 02:41:43;;;;;;;1.13;1.13;;;13.20;99.90;;;;;;5076933;28;20453;-69
2022/10/28 02:44:13;;;;;;;0.30;0.30;;;13.20;99.90;;;;;;5076692;28;20396;-69
2022/10/28 02:46:44;;;;;;;0.93;0.93;;;13.20;99.90;;;;;;5077072;28;20402;-70
2022/10/28 02:49:12;;;;;;;0.60;0.60;;;13.30;99.90;;;;;;5076141;28;20458;-71
2022/10/28 02:51:46;;;;;;;0.90;0.80;;;13.30;99.90;;;;;;5076242;28;20884;-71
2022/10/28 02:54:16;;;;;;;0.30;0.30;;;13.30;99.90;;;;;;5076484;28;20453;-69
2022/10/28 02:56:57;;;;;;;1.57;0.80;;;13.30;99.90;;;;;;5076480;28;20392;-68
2022/10/28 02:59:27;;;;;;;3.33;1.13;;;13.20;99.90;;;;;;5076318;28;20523;-71
2022/10/28 03:01:52;;;;;;;0.40;0.40;;;13.30;99.90;;;;;;5076138;28;20415;-70
2022/10/28 03:04:18;;;;;;;0.43;0.43;;;13.20;99.90;;;;;;5076225;28;20406;-71
2022/10/28 03:06:44;;;;;;;0.53;0.53;;;13.20;99.90;;;;;;5076227;28;20177;-69
2022/10/28 03:09:09;;;;;;;0.40;0.40;;;13.20;99.90;;;;;;5075902;28;20223;-69
2022/10/28 03:11:35;;;;;;;0.80;0.80;;;;;;;;;;5075773;28;20208;-69
2022/10/28 03:14:01;;;;;;;1.60;1.50;;;13.30;99.90;;;;;;5075861;28;20165;-69
2022/10/28 03:16:27;;;;;;;1.60;1.50;;;13.30;99.90;;;;;;5075792;28;20403;-69
2022/10/28 03:18:53;;;;;;;4.30;1.60;;;13.20;99.90;;;;;;5074333;28;20407;-70
2022/10/28 03:21:19;;;;;;;0.40;0.40;;;13.20;99.90;;;;;;5075847;28;20247;-72
2022/10/28 03:23:44;;;;;;;1.07;1.07;;;13.10;99.90;;;;;;5075672;28;20409;-69
2022/10/28 03:26:10;;;;;;;0.53;0.53;;;13.00;99.90;;;;;;5075595;28;20192;-71
2022/10/28 03:28:35;;;;;;;1.00;0.40;;;12.90;99.90;;;;;;5074954;28;20176;-68
2022/10/28 03:31:01;;;;;;;1.00;0.83;;;13.00;99.90;;;;;;5075374;28;20713;-70
2022/10/28 03:33:27;;;;;;;1.07;0.90;;;13.00;99.90;;;;;;5075553;28;20670;-70
2022/10/28 03:35:52;;;;;;;0.50;0.50;;;13.10;99.90;;;;;;5075610;28;20171;-69
2022/10/28 03:38:18;;;;;;;0.60;0.60;;;13.10;99.90;;;;;;5075563;28;20487;-70
2022/10/28 03:40:47;;;;;;;0.83;0.83;;;13.10;99.90;;;;;;5073797;28;20667;-68
2022/10/28 03:43:13;;;;;;;2.80;2.70;;;13.20;99.90;;;;;;5075359;28;20171;-71
2022/10/28 03:45:39;;;;;;;0.40;0.40;;;13.10;99.90;;;;;;5075324;28;20459;-69
2022/10/28 03:48:05;;;;;;;0.50;0.50;;;13.10;99.90;;;;;;5075555;28;20309;-71
2022/10/28 03:50:30;;;;;;;0.50;0.50;;;13.10;99.90;;;;;;5074900;28;20236;-71
2022/10/28 03:52:56;;;;;;;0.50;0.50;;;13.00;99.90;;;;;;5074987;28;20444;-70
2022/10/28 03:55:22;;;;;;;0.53;0.53;;;13.00;99.90;;;;;;5075182;28;20166;-71
2022/10/28 03:57:48;;;;;;;0.87;0.60;;;13.00;99.90;;;;;;5075311;28;20161;-69
2022/10/28 04:00:14;;;;;;;0.50;0.50;;;13.00;99.90;;;;;;5074924;28;20430;-70
2022/10/28 04:02:40;;;;;;;1.30;0.90;;;13.10;99.90;;;;;;5075078;28;20252;-71
2022/10/28 04:05:06;;;;;;;1.17;1.17;;;13.00;99.90;;;;;;5075004;28;20508;-71
2022/10/28 04:07:32;;;;;;;2.10;2.00;;;13.00;99.90;;;;;;5075052;28;20169;-69
2022/10/28 04:09:57;;;;;;;0.40;0.40;;;13.00;99.90;;;;;;5074623;28;20422;-69
2022/10/28 04:12:23;;;;;;;0.40;0.40;;;12.90;99.90;;;;;;5074703;28;20670;-70
2022/10/28 04:14:49;;;;;;;0.60;0.40;;;12.90;99.90;;;;;;5074732;28;20172;-68
2022/10/28 04:17:14;;;;;;;0.57;0.57;;;12.90;99.90;;;;;;5074705;28;20255;-70
2022/10/28 04:19:40;;;;;;;0.30;0.30;;;13.00;99.90;;;;;;5074390;28;20196;-70
2022/10/28 04:22:06;;;;;;;0.40;0.40;;;13.00;99.90;;;;;;5075030;28;20172;-68
2022/10/28 04:24:32;;;;;;;0.83;0.83;;;12.90;99.90;;;;;;5074424;28;20196;-70
2022/10/28 04:26:58;;;;;;;1.20;1.10;;;12.90;99.90;;;;;;5074419;28;20420;-71
2022/10/28 04:29:23;;;;;;;0.80;0.80;;;12.90;99.90;;;;;;5074465;28;20195;-70
2022/10/28 04:31:50;;;;;;;0.77;0.77;;;12.90;99.90;;;;;;5074278;28;20227;-72
2022/10/28 04:34:16;;;;;;;0.60;0.60;;;13.00;99.90;;;;;;5074363;28;20404;-69
2022/10/28 04:36:41;;;;;;;0.70;0.70;;;13.00;99.90;;;;;;5074450;28;20169;-72
2022/10/28 04:39:08;;;;;;;0.70;0.70;;;13.00;99.90;;;;;;5073258;28;20424;-68
2022/10/28 04:41:34;;;;;;;0.40;0.40;;;13.10;99.90;;;;;;5074100;28;20187;-71
2022/10/28 04:44:00;;;;;;;0.77;0.53;;;13.10;99.90;;;;;;5074187;28;20411;-69
2022/10/28 04:46:25;;;;;;;0.50;0.50;;;13.00;99.90;;;;;;5072839;28;20191;-71
2022/10/28 04:48:51;;;;;;;0.83;0.83;;;13.00;99.90;;;;;;5073903;28;20182;-71
2022/10/28 04:51:17;;;;;;;0.50;0.40;;;13.00;99.90;;;;;;5074203;28;20176;-67
2022/10/28 04:53:42;;;;;;;0.40;0.40;;;13.00;99.90;;;;;;5073992;28;20206;-70
2022/10/28 04:56:08;;;;;;;0.70;0.70;;;13.00;99.90;;;;;;5074112;28;20166;-70
2022/10/28 04:58:34;;;;;;;0.70;0.70;;;13.00;99.90;;;;;;5074075;28;20172;-70
2022/10/28 05:01:06;;;;;;;0.30;0.30;;;13.10;99.90;;;;;;5073721;28;20441;-70
2022/10/28 05:03:31;;;;;;;0.63;0.50;;;13.10;99.90;;;;;;5074092;28;20169;-69
2022/10/28 05:05:57;;;;;;;0.30;0.30;;;13.20;99.90;;;;;;5073938;28;20901;-71
2022/10/28 05:08:23;;;;;;;0.30;0.30;;;13.20;99.90;;;;;;5073740;28;20184;-70
2022/10/28 05:10:49;;;;;;;0.40;0.40;;;13.30;99.90;;;;;;5073559;28;20197;-69
2022/10/28 05:13:16;;;;;;;0.30;0.30;;;13.40;99.90;;;;;;5073652;28;20214;-70
2022/10/28 05:15:42;;;;;;;0.70;0.70;;;13.50;99.90;;;;;;5073638;28;20405;-71
2022/10/28 05:18:07;;;;;;;1.33;0.80;;;13.50;99.90;;;;;;5073747;28;20404;-70
2022/10/28 05:20:33;;;;;;;0.40;0.40;;;13.50;99.90;;;;;;5073324;28;20506;-68
2022/10/28 05:22:59;;;;;;;0.40;0.40;;;13.50;99.90;;;;;;5073790;28;20208;-68
2022/10/28 05:25:25;;;;;;;0.40;0.40;;;13.60;99.90;;;;;;5073424;28;20188;-71
2022/10/28 05:27:50;;;;;;;0.30;0.30;;;13.60;99.90;;;;;;5073641;28;20928;-69
2022/10/28 05:30:17;;;;;;;0.40;0.40;;;13.70;99.90;;;;;;5073476;28;20200;-69
2022/10/28 05:32:43;;;;;;;0.77;0.77;;;13.80;99.90;;;;;;5073645;28;20200;-69
2022/10/28 05:35:09;;;;;;;0.57;0.57;;;13.90;99.90;;;;;;5073631;28;20413;-68
2022/10/28 05:37:35;;;;;;;2.10;0.50;;;13.90;99.90;;;;;;5073579;28;20407;-71
2022/10/28 05:40:02;;;;;;;0.40;0.40;;;13.90;99.90;;;;;;5073461;28;20426;-71
2022/10/28 05:42:27;;;;;;;1.50;0.50;;;13.90;99.90;;;;;;5072785;28;20422;-71
2022/10/28 05:44:53;;;;;;;0.40;0.40;;;14.00;99.90;;;;;;5072181;28;20992;-69
2022/10/28 05:47:19;;;;;;;0.50;0.50;;;14.00;99.90;;;;;;5073508;28;20248;-68
2022/10/28 05:49:44;;;;;;;1.63;0.57;;;14.00;99.90;;;;;;5073117;28;20624;-71
2022/10/28 05:52:10;;;;;;;0.67;0.67;;;14.10;99.90;;;;;;5077445;28;20220;-70
2022/10/28 05:54:36;;;;;;;0.40;0.40;;;14.20;99.90;;;;;;5077469;28;20175;-69
2022/10/28 05:57:01;;;;;;;0.30;0.30;;;14.20;99.90;;;;;;5077428;28;20406;-69
2022/10/28 05:59:27;;;;;;;0.40;0.40;;;14.20;99.90;;;;;;5077058;28;20189;-72
2022/10/28 06:01:52;;;;;;;0.43;0.43;;;14.20;99.90;;;;;;5077386;28;20340;-73
2022/10/28 06:04:18;;;;;;;0.83;0.73;;;14.20;99.90;;;;;;5077302;28;20169;-68
2022/10/28 06:06:44;;;;;;;0.33;0.33;;;14.20;99.90;;;;;;5077389;28;20178;-71
2022/10/28 06:09:09;;;;;;;0.40;0.40;;;14.10;99.90;;;;;;5076877;28;20570;-71
2022/10/28 06:11:35;;;;;;;0.43;0.43;;;14.10;99.90;;;;;;5077082;28;20170;-69
2022/10/28 06:14:01;;;;;;;0.40;0.40;;;14.10;99.90;;;;;;5076598;28;20173;-68
2022/10/28 06:16:26;;;;;;;0.30;0.30;;;14.10;99.90;;;;;;5077066;28;20166;-71
2022/10/28 06:18:52;;;;;;;0.40;0.40;;;14.20;99.90;;;;;;5076843;28;20162;-68
2022/10/28 06:21:18;;;;;;;0.87;0.87;;;;;;;;;;5077315;28;20846;-68
2022/10/28 06:23:45;;;;;;;0.90;0.60;;;14.10;99.90;;;;;;5075448;28;20205;-69
2022/10/28 06:26:11;;;;;;;0.50;0.50;;;14.10;99.90;;;;;;5076680;28;20437;-71
2022/10/28 06:28:37;;;;;;;0.60;0.40;;;14.00;99.90;;;;;;5076796;28;20854;-70
2022/10/28 06:31:04;;;;;;;0.40;0.40;;;13.90;99.90;;;;;;5076563;28;20252;-71
2022/10/28 06:33:30;;;;;;;0.50;0.40;;;14.00;99.90;;;;;;5076694;28;20259;-69
2022/10/28 06:35:57;;;;;;;1.37;1.37;;;14.00;99.90;;;;;;5076450;28;20410;-70
2022/10/28 06:38:23;;;;;;;0.50;0.50;;;14.10;99.90;;;;;;5076559;28;20453;-70
2022/10/28 06:40:49;;;;;;;0.53;0.53;;;14.10;99.90;;;;;;5076213;28;20431;-70
2022/10/28 06:43:15;;;;;;;1.10;0.57;;;14.20;99.90;;;;;;5076475;28;20406;-69
2022/10/28 06:45:41;;;;;;;0.50;0.50;;;14.30;99.90;;;;;;5076609;28;20176;-70
2022/10/28 06:48:06;;;;;;;3.40;0.73;;;14.30;99.90;;;;;;5076421;28;20465;-68
2022/10/28 06:50:33;;;;;;;0.63;0.63;;;14.30;99.90;;;;;;5076121;28;20776;-70
2022/10/28 06:52:59;;;;;;;0.50;0.50;;;14.30;99.90;;;;;;5076283;28;20596;-71
2022/10/28 06:55:26;;;;;;;0.40;0.40;;;14.30;99.90;;;;;;5076507;28;20507;-71
2022/10/28 06:57:52;;;;;;;0.70;0.57;;;14.30;99.90;;;;;;5076297;28;20407;-68
2022/10/28 07:00:19;;;;;;;22.73;1.03;;;14.40;99.90;;;;;;5075955;28;20818;-71
2022/10/28 07:02:49;;;;;;;0.50;0.50;;;14.40;99.90;;;;;;5075311;28;20449;-69
2022/10/28 07:05:15;;;;;;;5.73;0.80;;;14.60;99.90;;;;;;5076070;28;20403;-69
2022/10/28 07:07:40;;;;;;;4.73;0.50;;;14.80;99.90;;;;;;5076041;28;20404;-70
2022/10/28 07:10:06;;;;;;;0.40;0.40;;;14.90;99.90;;;;;;5075863;28;20553;-70
2022/10/28 07:12:32;;;;;;;0.57;0.57;;;15.10;99.90;;;;;;5075929;28;20205;-68
2022/10/28 07:14:57;;;;;;;0.40;0.40;;;15.10;99.90;;;;;;5076051;28;20410;-70
2022/10/28 07:17:23;;;;;;;0.53;0.53;;;15.20;99.90;;;;;;5075849;28;20507;-70
2022/10/28 07:19:49;;;;;;;0.50;0.50;;;15.30;99.40;;;;;;5075968;28;20186;-69
2022/10/28 07:22:14;;;;;;;0.43;0.43;;;15.40;99.50;;;;;;5075990;28;20171;-71
2022/10/28 07:24:40;;;;;;;0.40;0.40;;;15.50;99.30;;;;;;5075644;28;20194;-68
2022/10/28 07:27:07;;;;;;;0.70;0.70;;;15.70;99.80;;;;;;5075666;28;20677;-70
2022/10/28 07:29:33;;;;;;;1.07;1.07;;;15.80;99.90;;;;;;5075380;28;20211;-71
2022/10/28 07:31:59;;;;;;;1.33;1.23;;;15.90;99.90;;;;;;5075417;28;20500;-70
2022/10/28 07:34:25;;;;;;;0.80;0.80;;;16.00;99.90;;;;;;5074294;28;20162;-69
2022/10/28 07:36:52;;;;;;;0.60;0.60;;;16.20;99.90;;;;;;5075547;28;20394;-70
2022/10/28 07:39:18;;;;;;;0.33;0.33;;;16.30;99.90;;;;;;5075260;28;20188;-68
2022/10/28 07:41:44;;;;;;;1.33;1.23;;;16.50;99.90;;;;;;5075564;28;20398;-67
2022/10/28 07:44:10;;;;;;;0.93;0.80;;;16.60;99.80;;;;;;5075535;28;20954;-68
2022/10/28 07:46:36;;;;;;;0.40;0.40;;;16.80;99.80;;;;;;5075478;28;20166;-70
2022/10/28 07:49:02;;;;;;;0.50;0.50;;;;;;;;;;5075199;28;20995;-69
2022/10/28 07:51:28;;;;;;;11.53;0.80;;;17.00;99.60;;;;;;5075427;28;20527;-69
2022/10/28 07:53:55;;;;;;;0.50;0.50;;;17.10;99.80;;;;;;5075400;28;20447;-70
2022/10/28 07:56:21;;;;;;;0.60;0.60;;;17.10;99.60;;;;;;5075187;28;20439;-72
2022/10/28 07:58:47;;;;;;;1.00;0.90;;;17.20;99.90;;;;;;5074945;28;20432;-68
2022/10/28 08:01:15;;;;;;;0.60;0.60;;;17.40;98.90;;;;;;5075089;28;20404;-70
2022/10/28 08:03:41;;;;;;;0.57;0.57;;;17.70;98.70;;;;;;5074968;28;20170;-70
2022/10/28 08:06:19;;;;;;;0.60;0.60;;;18.10;99.10;;;;;;5073595;28;20825;-69
2022/10/28 08:08:46;;;;;;;0.93;0.93;;;18.70;98.10;;;;;;5073649;28;20763;-70
2022/10/28 08:11:15;;;;;;;0.60;0.60;;;18.70;98.50;;;;;;5074973;28;20406;-69
2022/10/28 08:13:41;;;;;;;2.60;1.03;;;18.90;98.10;;;;;;5074709;28;20489;-72
2022/10/28 08:16:08;;;;;;;0.43;0.43;;;19.10;97.90;;;;;;5074907;28;20494;-69
2022/10/28 08:18:34;;;;;;;0.80;0.57;;;19.20;97.70;;;;;;5074674;28;20431;-71
2022/10/28 08:21:01;;;;;;;0.50;0.50;;;19.30;97.50;;;;;;5074436;28;20427;-71
2022/10/28 08:23:28;;;;;;;0.60;0.50;;;19.30;97.50;;;;;;5074683;28;20769;-72
2022/10/28 08:25:53;;;;;;;0.53;0.50;;;19.40;97.40;;;;;;5074487;28;20906;-70
2022/10/28 08:28:19;;;;;;;0.50;0.50;;;19.50;97.30;;;;;;5074616;28;20492;-72
2022/10/28 08:30:45;;;;;;;1.20;1.10;;;19.60;97.50;;;;;;5074203;28;20196;-70
2022/10/28 08:33:12;;;;;;;0.40;0.40;;;19.70;97.60;;;;;;5074339;28;20200;-72
2022/10/28 08:35:38;;;;;;;0.60;0.50;;;19.90;98.10;;;;;;5074421;28;20423;-72
2022/10/28 08:38:04;;;;;;;1.20;1.10;;;20.00;97.70;;;;;;5074504;28;20400;-72
2022/10/28 08:40:50;;;;;;;0.70;0.70;;;20.20;97.70;;;;;;5074025;28;20605;-70
2022/10/28 08:43:32;;;;;;;0.40;0.40;;;20.40;97.50;;;;;;5073692;28;20475;-72
2022/10/28 08:46:12;;;;;;;3.17;1.00;;;20.60;97.00;;;;;;5074344;28;20408;-71
2022/10/28 08:48:39;;;;;;;0.90;0.50;;;21.10;96.70;;;;;;5074141;28;20498;-72
2022/10/28 08:51:18;;;;;;;0.40;0.40;;;21.10;97.00;;;;;;5073977;28;20452;-73
2022/10/28 08:53:49;;;;;;;0.50;0.50;;;21.60;96.20;;;;;;5074149;28;20798;-71
2022/10/28 08:56:24;;;;;;;0.50;0.50;;;22.00;95.80;;;;;;5073613;28;20812;-69
2022/10/28 08:58:53;;;;;;;0.40;0.40;;;22.80;99.90;;;;;;5072327;28;20382;-73
2022/10/28 09:01:30;;;;;;;0.83;0.80;;;22.70;94.40;;;;;;5074128;28;20399;-71
2022/10/28 09:04:00;;;;;;;1.20;1.10;;;23.20;93.50;;;;;;5073927;28;20370;-72
2022/10/28 09:06:26;;;;;;;0.70;0.70;;;23.60;93.20;;;;;;5074154;28;20395;-70
2022/10/28 09:08:53;;;;;;;0.70;0.70;;;23.70;99.90;;;;;;5073901;28;20375;-72
2022/10/28 09:11:58;;;;;;;0.93;0.70;;;24.00;91.90;;;;;;5074173;28;20516;-72
2022/10/28 09:14:26;;;;;;;0.70;0.70;;;24.80;91.50;;;;;;5073713;28;20430;-73
2022/10/28 09:17:05;;;;;;;1.03;0.63;;;26.50;87.90;;;;;;5073765;28;20419;-74
2022/10/28 09:19:47;;;;;;;0.50;0.50;;;28.10;82.90;;;;;;5073575;28;20499;-70
2022/10/28 09:22:25;;;;;;;0.40;0.40;;;29.80;75.60;;;;;;5074196;28;20723;-73
2022/10/28 09:25:00;;;;;;;0.90;0.73;;;31.20;69.70;;;;;;5073346;28;20487;-73
2022/10/28 09:27:44;;;;;;;0.40;0.40;;;32.30;63.40;;;;;;5073702;28;20411;-72
2022/10/28 09:30:32;;;;;;;0.40;0.40;;;33.00;59.50;;;;;;5072053;28;20981;-74
2022/10/28 09:33:28;;;;;;;0.40;0.40;;;33.60;56.70;;;;;;5073470;28;20455;-73
2022/10/28 09:35:55;;;;;;;1.00;0.60;;;34.10;53.70;;;;;;5073983;28;20792;-71
2022/10/28 09:38:33;;;;;;;0.50;0.50;;;34.30;52.50;;;;;;5073997;28;20708;-71
2022/10/28 09:41:23;;;;;;;0.87;0.50;;;33.80;51.50;;;;;;5073816;28;20484;-70
2022/10/28 09:43:57;;;;;;;0.53;0.50;;;33.00;52.20;;;;;;5073671;28;20412;-72
2022/10/28 09:46:27;;;;;;;0.60;0.50;;;32.20;52.60;;;;;;5073824;28;20391;-71
2022/10/28 09:48:56;;;;;;;0.63;0.60;;;30.90;67.40;;;;;;5073764;28;20745;-74
2022/10/28 09:51:28;;;;;;;2.60;1.00;;;31.10;53.40;;;;;;5073958;28;20399;-69
2022/10/28 09:53:57;;;;;;;0.43;0.43;;;30.60;53.50;;;;;;5073287;28;20504;-73
2022/10/28 09:56:24;;;;;;;2.83;0.80;;;30.70;54.80;;;;;;5073508;28;20400;-71
2022/10/28 09:58:51;;;;;;;0.53;0.50;;;31.90;65.50;;;;;;5073221;28;20396;-71
2022/10/28 10:01:18;;;;;;;0.77;0.50;;;31.70;51.90;;;;;;5073748;28;20400;-73
2022/10/28 10:03:47;;;;;;;0.93;0.93;;;32.30;51.80;;;;;;5073833;28;21018;-72
2022/10/28 10:06:22;;;;;;;0.40;0.40;;;32.80;51.40;;;;;;5073865;28;20400;-72
2022/10/28 10:08:48;;;;;;;1.07;0.53;;;33.20;57.00;;;;;;5073313;28;20414;-73
2022/10/28 10:11:45;;;;;;;0.47;0.47;;;33.10;50.60;;;;;;5073460;28;20944;-71
2022/10/28 10:14:45;;;;;;;1.93;1.10;;;33.20;52.10;;;;;;5073560;28;20177;-71
2022/10/28 10:17:44;;;;;;;0.70;0.70;;;33.00;50.60;;;;;;5072911;28;20403;-71
2022/10/28 10:20:16;;;;;;;1.57;0.77;;;32.90;50.30;;;;;;5018834;28;20438;-71
2022/10/28 10:22:44;;;;;;;0.47;0.47;;;32.90;49.80;;;;;;5072939;28;20905;-73
2022/10/28 10:25:18;;;;;;;0.40;0.40;;;32.80;51.80;;;;;;5072923;28;20411;-72
2022/10/28 10:27:59;;;;;;;1.07;0.70;;;32.40;51.50;;;;;;5073431;28;20403;-74
2022/10/28 10:30:30;;;;;;;0.43;0.43;;;32.00;53.00;;;;;;5072358;28;20419;-71
2022/10/28 10:32:56;;;;;;;1.30;1.20;;;31.60;52.90;;;;;;5072902;28;20443;-72
2022/10/28 10:35:28;;;;;;;1.10;1.10;;;31.40;53.10;;;;;;5073024;28;20404;-71
2022/10/28 10:37:56;;;;;;;0.60;0.60;;;31.20;50.90;;;;;;5073265;28;20495;-72
2022/10/28 10:40:26;;;;;;;0.40;0.40;;;30.90;52.10;;;;;;5076390;28;20424;-75
2022/10/28 10:42:53;;;;;;;0.40;0.40;;;30.50;54.90;;;;;;5075326;28;20778;-73
2022/10/28 10:45:26;;;;;;;0.40;0.40;;;30.00;52.30;;;;;;5076519;28;20491;-71
2022/10/28 10:48:06;;;;;;;1.20;1.20;;;29.60;55.40;;;;;;5076532;28;20549;-73
2022/10/28 10:50:32;;;;;;;0.57;0.57;;;29.10;53.20;;;;;;5076197;28;20423;-72
2022/10/28 10:53:00;;;;;;;0.40;0.40;;;28.70;56.10;;;;;;5076297;28;20508;-71
2022/10/28 10:55:38;;;;;;;0.40;0.40;;;28.50;54.70;;;;;;5076305;28;20786;-71
2022/10/28 10:58:05;;;;;;;0.80;0.50;;;28.30;54.80;;;;;;5076194;28;20453;-72
2022/10/28 11:00:35;;;;;;;0.40;0.37;;;28.20;54.90;;;;;;5075896;28;20843;-72
2022/10/28 11:03:03;;;;;;;0.60;0.50;;;28.10;51.20;;;;;;5076197;28;20428;-73
2022/10/28 11:05:28;;;;;;;0.30;0.30;;;28.00;53.10;;;;;;5076266;28;20419;-69
2022/10/28 11:07:57;;;;;;;0.60;0.60;;;27.90;53.50;;;;;;5076119;28;20404;-69
2022/10/28 11:10:25;;;;;;;0.83;0.70;;;27.90;53.50;;;;;;5075777;28;20196;-72
2022/10/28 11:12:56;;;;;;;1.13;0.50;;;27.60;51.90;;;;;;5076069;28;20442;-72
2022/10/28 11:15:28;;;;;;;0.33;0.33;;;27.50;52.40;;;;;;5075969;28;20400;-70
2022/10/28 11:18:19;;;;;;;0.50;0.50;;;27.40;49.00;;;;;;5076097;28;20408;-74
2022/10/28 11:21:17;;;;;;;1.03;1.03;;;27.20;49.30;;;;;;5075794;28;20434;-72
2022/10/28 11:24:09;;;;;;;0.67;0.67;;;27.00;51.00;;;;;;5076197;28;20459;-69
2022/10/28 11:26:46;;;;;;;0.57;0.57;;;26.90;58.20;;;;;;5075536;28;21026;-72
2022/10/28 11:29:14;;;;;;;0.30;0.30;;;26.70;51.20;;;;;;5075381;28;20428;-72
2022/10/28 11:32:30;;;;;;;0.40;0.40;;;26.60;50.00;;;;;;5075480;28;20453;-70
2022/10/28 11:35:08;;;;;;;0.80;0.80;;;26.60;49.70;;;;;;5033142;28;20412;-71
2022/10/28 11:37:45;;;;;;;0.50;0.50;;;26.40;51.60;;;;;;5075683;28;20448;-73
2022/10/28 11:40:38;;;;;;;0.40;0.40;;;26.20;49.50;;;;;;5075479;28;20423;-71
2022/10/28 11:43:25;;;;;;;0.47;0.47;;;26.00;52.90;;;;;;5075483;28;20467;-74
2022/10/28 11:46:26;;;;;;;0.40;0.40;;;25.90;51.10;;;;;;5075459;28;20420;-73
2022/10/28 11:49:26;;;;;;;0.67;0.40;;;26.00;67.30;;;;;;5034079;28;20878;-73
2022/10/28 11:52:20;;;;;;;0.40;0.40;;;25.80;50.60;;;;;;5075341;28;20427;-70
2022/10/28 11:55:00;;;;;;;0.33;0.33;;;25.80;51.80;;;;;;5075117;28;20400;-71
2022/10/28 11:57:44;;;;;;;0.30;0.30;;;25.80;55.50;;;;;;5075390;28;20487;-71
2022/10/28 12:00:22;;;;;;;0.53;0.53;;;25.70;52.80;;;;;;5074881;28;20431;-72
2022/10/28 12:03:04;;;;;;;0.33;0.33;;;25.60;50.60;;;;;;5075160;28;20796;-73
2022/10/28 12:05:54;;;;;;;0.50;0.50;;;25.60;54.70;;;;;;5075165;28;20404;-74
2022/10/28 12:08:20;;;;;;;0.40;0.40;;;25.60;51.40;;;;;;5075003;28;20867;-73
2022/10/28 12:11:09;;;;;;;1.03;0.67;;;25.60;52.20;;;;;;5074767;28;20489;-72
2022/10/28 12:13:57;;;;;;;0.63;0.60;;;25.40;54.80;;;;;;5074757;28;20193;-73
2022/10/28 12:16:31;;;;;;;0.60;0.60;;;25.20;52.30;;;;;;5074811;28;20415;-70
2022/10/28 12:19:07;;;;;;;0.50;0.50;;;24.50;68.50;;;;;;5074579;28;20478;-69
2022/10/28 12:21:40;;;;;;;0.60;0.60;;;24.70;52.10;;;;;;5074815;28;20532;-71
2022/10/28 12:24:14;;;;;;;0.30;0.30;;;24.70;54.70;;;;;;5074834;28;20414;-70
2022/10/28 12:26:53;;;;;;;0.80;0.70;;;24.60;54.90;;;;;;5074561;28;20382;-72
2022/10/28 12:29:32;;;;;;;0.60;0.60;;;24.60;51.00;;;;;;5074327;28;20416;-71
2022/10/28 12:32:06;;;;;;;0.37;0.37;;;24.60;53.80;;;;;;5074329;28;20378;-72
2022/10/28 12:34:37;;;;;;;0.40;0.40;;;24.50;55.10;;;;;;5074561;28;20398;-72
2022/10/28 12:37:26;;;;;;;3.00;0.47;;;24.40;55.80;;;;;;5074414;28;20396;-72
2022/10/28 12:39:52;;;;;;;0.40;0.40;;;24.30;51.80;;;;;;5074000;28;20432;-72
2022/10/28 12:42:24;;;;;;;0.40;0.40;;;24.30;53.20;;;;;;5074330;28;20408;-74
2022/10/28 12:44:52;;;;;;;0.50;0.50;;;24.20;55.50;;;;;;5074118;28;20256;-72
2022/10/28 12:47:35;;;;;;;1.90;0.77;;;24.00;51.50;;;;;;5074283;28;20411;-72
2022/10/28 12:50:24;;;;;;;2.40;1.07;;;24.00;54.60;;;;;;5074015;28;20424;-72
2022/10/28 12:53:04;;;;;;;0.40;0.40;;;23.90;55.20;;;;;;5074091;28;20414;-74
2022/10/28 12:55:36;;;;;;;0.40;0.40;;;23.80;53.40;;;;;;5074106;28;20734;-71
2022/10/28 12:58:14;;;;;;;0.57;0.57;;;23.90;53.00;;;;;;5074141;28;20434;-71
2022/10/28 13:00:44;;;;;;;0.30;0.30;;;23.80;53.90;;;;;;5073077;28;20786;-70
2022/10/28 13:03:14;;;;;;;0.40;0.40;;;23.70;52.70;;;;;;5073786;28;20489;-72
2022/10/28 13:06:05;;;;;;;0.40;0.40;;;23.60;56.30;;;;;;5074035;28;20465;-70
2022/10/28 13:08:42;;;;;;;0.40;0.40;;;23.50;53.20;;;;;;5073182;28;20391;-70
2022/10/28 13:11:14;;;;;;;0.30;0.30;;;23.40;55.30;;;;;;5073718;28;20395;-72